sensor_id;sensor_type;location;lat;lon;timestamp;P1;durP1;ratioP1;P2;durP2;ratioP2
6928;SDS011;3504;52.616;13.238;2023-02-15T00:02:16;38.87;;;23.30;;
6928;SDS011;3504;52.616;13.238;2023-02-15T00:07:19;39.77;;;23.37;;
6928;SDS011;3504;52.616;13.238;2023-02-15T00:12:20;39.47;;;22.03;;
6928;SDS011;3504;52.616;13.238;2023-02-15T00:17:21;41.77;;;21.57;;
6928;SDS011;3504;52.616;13.238;2023-02-15T00:22:21;41.60;;;22.50;;
6928;SDS011;3504;52.616;13.238;2023-02-15T00:27:22;38.70;;;21.73;;
6928;SDS011;3504;52.616;13.238;2023-02-15T00:32:23;41.37;;;21.90;;
6928;SDS011;3504;52.616;13.238;2023-02-15T00:37:23;39.43;;;21.43;;
6928;SDS011;3504;52.616;13.238;2023-02-15T00:42:24;40.13;;;21.27;;
6928;SDS011;3504;52.616;13.238;2023-02-15T00:47:25;38.97;;;21.93;;
6928;SDS011;3504;52.616;13.238;2023-02-15T00:52:26;40.83;;;23.00;;
6928;SDS011;3504;52.616;13.238;2023-02-15T00:57:26;40.43;;;22.60;;
6928;SDS011;3504;52.616;13.238;2023-02-15T01:02:27;38.53;;;20.33;;
6928;SDS011;3504;52.616;13.238;2023-02-15T01:07:28;41.07;;;22.47;;
6928;SDS011;3504;52.616;13.238;2023-02-15T01:12:28;36.47;;;20.70;;
6928;SDS011;3504;52.616;13.238;2023-02-15T01:17:29;39.10;;;21.57;;
6928;SDS011;3504;52.616;13.238;2023-02-15T01:22:31;40.60;;;22.53;;
6928;SDS011;3504;52.616;13.238;2023-02-15T01:27:32;39.23;;;22.30;;
6928;SDS011;3504;52.616;13.238;2023-02-15T01:32:32;47.07;;;23.23;;
6928;SDS011;3504;52.616;13.238;2023-02-15T01:37:33;41.13;;;21.77;;
6928;SDS011;3504;52.616;13.238;2023-02-15T01:42:34;39.03;;;22.13;;
6928;SDS011;3504;52.616;13.238;2023-02-15T01:47:39;39.93;;;21.30;;
6928;SDS011;3504;52.616;13.238;2023-02-15T01:53:12;38.50;;;22.03;;
6928;SDS011;3504;52.616;13.238;2023-02-15T01:58:18;38.17;;;20.73;;
6928;SDS011;3504;52.616;13.238;2023-02-15T02:03:21;37.87;;;20.50;;
6928;SDS011;3504;52.616;13.238;2023-02-15T02:08:38;40.40;;;20.37;;
6928;SDS011;3504;52.616;13.238;2023-02-15T02:13:39;36.93;;;19.97;;
6928;SDS011;3504;52.616;13.238;2023-02-15T02:18:45;35.20;;;20.17;;
6928;SDS011;3504;52.616;13.238;2023-02-15T02:35:48;35.40;;;19.10;;
6928;SDS011;3504;52.616;13.238;2023-02-15T02:41:30;41.00;;;20.50;;
6928;SDS011;3504;52.616;13.238;2023-02-15T02:46:56;34.07;;;18.63;;
6928;SDS011;3504;52.616;13.238;2023-02-15T02:52:03;37.07;;;20.20;;
6928;SDS011;3504;52.616;13.238;2023-02-15T02:57:07;34.87;;;18.67;;
6928;SDS011;3504;52.616;13.238;2023-02-15T03:02:20;39.40;;;21.37;;
6928;SDS011;3504;52.616;13.238;2023-02-15T03:07:26;39.97;;;20.20;;
6928;SDS011;3504;52.616;13.238;2023-02-15T03:12:30;36.93;;;19.30;;
6928;SDS011;3504;52.616;13.238;2023-02-15T03:17:37;40.67;;;21.53;;
6928;SDS011;3504;52.616;13.238;2023-02-15T03:23:06;37.53;;;18.87;;
6928;SDS011;3504;52.616;13.238;2023-02-15T03:28:19;40.10;;;20.33;;
6928;SDS011;3504;52.616;13.238;2023-02-15T03:33:27;38.10;;;19.60;;
6928;SDS011;3504;52.616;13.238;2023-02-15T03:38:30;34.67;;;19.70;;
6928;SDS011;3504;52.616;13.238;2023-02-15T03:43:47;38.30;;;19.43;;
6928;SDS011;3504;52.616;13.238;2023-02-15T03:48:57;35.83;;;20.90;;
6928;SDS011;3504;52.616;13.238;2023-02-15T03:54:12;37.60;;;19.60;;
6928;SDS011;3504;52.616;13.238;2023-02-15T03:59:37;35.43;;;19.47;;
6928;SDS011;3504;52.616;13.238;2023-02-15T04:04:57;38.03;;;20.53;;
6928;SDS011;3504;52.616;13.238;2023-02-15T04:09:57;43.67;;;19.77;;
6928;SDS011;3504;52.616;13.238;2023-02-15T04:15:16;38.70;;;20.87;;
6928;SDS011;3504;52.616;13.238;2023-02-15T04:20:36;38.57;;;19.87;;
6928;SDS011;3504;52.616;13.238;2023-02-15T04:25:55;42.50;;;20.77;;
6928;SDS011;3504;52.616;13.238;2023-02-15T04:30:55;49.33;;;24.70;;
6928;SDS011;3504;52.616;13.238;2023-02-15T04:35:56;47.17;;;24.93;;
6928;SDS011;3504;52.616;13.238;2023-02-15T04:40:56;45.07;;;24.07;;
6928;SDS011;3504;52.616;13.238;2023-02-15T04:45:57;53.90;;;25.47;;
6928;SDS011;3504;52.616;13.238;2023-02-15T04:50:58;43.93;;;23.60;;
6928;SDS011;3504;52.616;13.238;2023-02-15T04:55:59;48.60;;;25.03;;
6928;SDS011;3504;52.616;13.238;2023-02-15T05:00:59;51.47;;;25.97;;
6928;SDS011;3504;52.616;13.238;2023-02-15T05:06:00;52.43;;;25.33;;
6928;SDS011;3504;52.616;13.238;2023-02-15T05:11:01;50.60;;;25.00;;
6928;SDS011;3504;52.616;13.238;2023-02-15T05:16:01;54.63;;;26.73;;
6928;SDS011;3504;52.616;13.238;2023-02-15T05:21:01;56.00;;;27.27;;
6928;SDS011;3504;52.616;13.238;2023-02-15T05:26:02;57.83;;;27.80;;
6928;SDS011;3504;52.616;13.238;2023-02-15T05:31:21;62.30;;;30.97;;
6928;SDS011;3504;52.616;13.238;2023-02-15T05:36:22;54.83;;;26.47;;
6928;SDS011;3504;52.616;13.238;2023-02-15T05:41:22;61.07;;;27.53;;
6928;SDS011;3504;52.616;13.238;2023-02-15T05:46:24;62.97;;;30.20;;
6928;SDS011;3504;52.616;13.238;2023-02-15T05:51:24;68.07;;;30.93;;
6928;SDS011;3504;52.616;13.238;2023-02-15T05:56:25;63.83;;;30.67;;
6928;SDS011;3504;52.616;13.238;2023-02-15T06:01:25;74.90;;;31.27;;
6928;SDS011;3504;52.616;13.238;2023-02-15T06:06:26;72.70;;;31.63;;
6928;SDS011;3504;52.616;13.238;2023-02-15T06:11:26;67.43;;;29.80;;
6928;SDS011;3504;52.616;13.238;2023-02-15T06:16:27;70.57;;;32.67;;
6928;SDS011;3504;52.616;13.238;2023-02-15T06:21:28;69.57;;;31.67;;
6928;SDS011;3504;52.616;13.238;2023-02-15T06:26:29;72.27;;;31.37;;
6928;SDS011;3504;52.616;13.238;2023-02-15T06:31:30;79.97;;;33.73;;
6928;SDS011;3504;52.616;13.238;2023-02-15T06:36:30;74.37;;;31.83;;
6928;SDS011;3504;52.616;13.238;2023-02-15T06:41:31;73.57;;;34.33;;
6928;SDS011;3504;52.616;13.238;2023-02-15T06:46:32;69.73;;;30.83;;
6928;SDS011;3504;52.616;13.238;2023-02-15T06:51:32;68.40;;;30.63;;
6928;SDS011;3504;52.616;13.238;2023-02-15T06:56:34;68.47;;;32.23;;
6928;SDS011;3504;52.616;13.238;2023-02-15T07:01:34;73.57;;;33.17;;
6928;SDS011;3504;52.616;13.238;2023-02-15T07:06:36;66.73;;;31.77;;
6928;SDS011;3504;52.616;13.238;2023-02-15T07:11:37;70.07;;;32.60;;
6928;SDS011;3504;52.616;13.238;2023-02-15T07:16:56;75.97;;;34.77;;
6928;SDS011;3504;52.616;13.238;2023-02-15T07:21:57;81.87;;;36.40;;
6928;SDS011;3504;52.616;13.238;2023-02-15T07:26:57;76.33;;;34.80;;
6928;SDS011;3504;52.616;13.238;2023-02-15T07:31:58;92.27;;;39.47;;
6928;SDS011;3504;52.616;13.238;2023-02-15T07:36:58;92.53;;;38.97;;
6928;SDS011;3504;52.616;13.238;2023-02-15T07:41:59;97.97;;;40.40;;
6928;SDS011;3504;52.616;13.238;2023-02-15T07:47:04;100.30;;;40.07;;
6928;SDS011;3504;52.616;13.238;2023-02-15T07:52:04;102.30;;;39.23;;
6928;SDS011;3504;52.616;13.238;2023-02-15T07:57:05;111.63;;;42.70;;
6928;SDS011;3504;52.616;13.238;2023-02-15T08:02:09;115.23;;;41.27;;
6928;SDS011;3504;52.616;13.238;2023-02-15T08:07:10;107.83;;;41.00;;
6928;SDS011;3504;52.616;13.238;2023-02-15T08:12:11;106.17;;;42.33;;
6928;SDS011;3504;52.616;13.238;2023-02-15T08:17:11;108.87;;;41.37;;
6928;SDS011;3504;52.616;13.238;2023-02-15T08:22:13;99.87;;;39.97;;
6928;SDS011;3504;52.616;13.238;2023-02-15T08:27:14;140.80;;;42.57;;
6928;SDS011;3504;52.616;13.238;2023-02-15T08:32:15;112.33;;;41.03;;
6928;SDS011;3504;52.616;13.238;2023-02-15T08:37:15;151.80;;;42.57;;
6928;SDS011;3504;52.616;13.238;2023-02-15T08:42:16;103.53;;;42.70;;
6928;SDS011;3504;52.616;13.238;2023-02-15T08:47:16;114.67;;;41.83;;
6928;SDS011;3504;52.616;13.238;2023-02-15T08:52:17;111.30;;;45.17;;
6928;SDS011;3504;52.616;13.238;2023-02-15T08:57:17;112.33;;;43.30;;
6928;SDS011;3504;52.616;13.238;2023-02-15T09:02:18;115.80;;;43.27;;
6928;SDS011;3504;52.616;13.238;2023-02-15T09:07:18;106.60;;;43.27;;
6928;SDS011;3504;52.616;13.238;2023-02-15T09:12:19;91.10;;;40.27;;
6928;SDS011;3504;52.616;13.238;2023-02-15T09:17:19;114.47;;;45.27;;
6928;SDS011;3504;52.616;13.238;2023-02-15T09:22:20;95.17;;;40.60;;
6928;SDS011;3504;52.616;13.238;2023-02-15T09:27:20;88.00;;;40.47;;
6928;SDS011;3504;52.616;13.238;2023-02-15T09:32:21;91.90;;;39.10;;
6928;SDS011;3504;52.616;13.238;2023-02-15T09:37:22;85.90;;;38.60;;
6928;SDS011;3504;52.616;13.238;2023-02-15T09:42:39;86.03;;;40.40;;
6928;SDS011;3504;52.616;13.238;2023-02-15T09:53:40;78.07;;;37.00;;
6928;SDS011;3504;52.616;13.238;2023-02-15T09:59:08;76.50;;;36.53;;
6928;SDS011;3504;52.616;13.238;2023-02-15T10:09:54;76.23;;;37.60;;
6928;SDS011;3504;52.616;13.238;2023-02-15T10:20:55;73.00;;;36.63;;
6928;SDS011;3504;52.616;13.238;2023-02-15T10:26:15;68.43;;;36.27;;
6928;SDS011;3504;52.616;13.238;2023-02-15T10:31:34;62.23;;;33.40;;
6928;SDS011;3504;52.616;13.238;2023-02-15T10:42:29;50.97;;;30.00;;
6928;SDS011;3504;52.616;13.238;2023-02-15T10:48:12;55.10;;;31.70;;
6928;SDS011;3504;52.616;13.238;2023-02-15T10:53:29;52.50;;;29.13;;
6928;SDS011;3504;52.616;13.238;2023-02-15T10:59:19;51.57;;;29.93;;
6928;SDS011;3504;52.616;13.238;2023-02-15T11:04:59;49.27;;;28.63;;
6928;SDS011;3504;52.616;13.238;2023-02-15T11:15:34;47.53;;;28.40;;
6928;SDS011;3504;52.616;13.238;2023-02-15T11:20:52;43.40;;;24.83;;
6928;SDS011;3504;52.616;13.238;2023-02-15T11:25:57;39.87;;;25.77;;
6928;SDS011;3504;52.616;13.238;2023-02-15T11:31:02;43.77;;;25.70;;
6928;SDS011;3504;52.616;13.238;2023-02-15T11:36:17;39.33;;;25.23;;
6928;SDS011;3504;52.616;13.238;2023-02-15T11:41:27;36.33;;;24.23;;
6928;SDS011;3504;52.616;13.238;2023-02-15T11:46:31;39.87;;;24.30;;
6928;SDS011;3504;52.616;13.238;2023-02-15T11:51:32;36.30;;;22.80;;
6928;SDS011;3504;52.616;13.238;2023-02-15T11:56:34;40.67;;;24.03;;
6928;SDS011;3504;52.616;13.238;2023-02-15T12:01:36;34.93;;;23.37;;
6928;SDS011;3504;52.616;13.238;2023-02-15T12:06:46;37.13;;;23.40;;
6928;SDS011;3504;52.616;13.238;2023-02-15T12:17:22;34.07;;;22.50;;
6928;SDS011;3504;52.616;13.238;2023-02-15T12:22:31;37.50;;;22.43;;
6928;SDS011;3504;52.616;13.238;2023-02-15T12:27:36;36.20;;;22.60;;
6928;SDS011;3504;52.616;13.238;2023-02-15T12:32:47;31.93;;;21.63;;
6928;SDS011;3504;52.616;13.238;2023-02-15T12:38:13;32.50;;;21.07;;
6928;SDS011;3504;52.616;13.238;2023-02-15T12:43:25;30.37;;;19.87;;
6928;SDS011;3504;52.616;13.238;2023-02-15T12:48:30;35.63;;;22.57;;
6928;SDS011;3504;52.616;13.238;2023-02-15T12:53:32;32.47;;;20.97;;
6928;SDS011;3504;52.616;13.238;2023-02-15T12:58:36;36.10;;;22.30;;
6928;SDS011;3504;52.616;13.238;2023-02-15T13:03:52;34.63;;;21.67;;
6928;SDS011;3504;52.616;13.238;2023-02-15T13:09:06;36.43;;;21.67;;
6928;SDS011;3504;52.616;13.238;2023-02-15T13:14:38;32.30;;;21.50;;
6928;SDS011;3504;52.616;13.238;2023-02-15T13:19:49;34.43;;;21.37;;
6928;SDS011;3504;52.616;13.238;2023-02-15T13:24:59;34.90;;;21.87;;
6928;SDS011;3504;52.616;13.238;2023-02-15T13:35:49;35.50;;;21.83;;
6928;SDS011;3504;52.616;13.238;2023-02-15T13:41:11;32.17;;;21.73;;
6928;SDS011;3504;52.616;13.238;2023-02-15T13:52:00;35.03;;;22.87;;
6928;SDS011;3504;52.616;13.238;2023-02-15T14:08:37;34.03;;;21.87;;
6928;SDS011;3504;52.616;13.238;2023-02-15T14:19:38;33.17;;;22.43;;
6928;SDS011;3504;52.616;13.238;2023-02-15T14:24:56;33.77;;;22.07;;
6928;SDS011;3504;52.616;13.238;2023-02-15T14:30:18;33.50;;;22.77;;
6928;SDS011;3504;52.616;13.238;2023-02-15T14:35:24;29.53;;;19.93;;
6928;SDS011;3504;52.616;13.238;2023-02-15T14:40:32;32.00;;;20.47;;
6928;SDS011;3504;52.616;13.238;2023-02-15T14:51:53;31.87;;;20.60;;
6928;SDS011;3504;52.616;13.238;2023-02-15T15:02:04;27.67;;;19.50;;
6928;SDS011;3504;52.616;13.238;2023-02-15T15:07:18;30.93;;;19.73;;
6928;SDS011;3504;52.616;13.238;2023-02-15T15:22:31;32.07;;;21.00;;
6928;SDS011;3504;52.616;13.238;2023-02-15T15:27:40;32.23;;;20.90;;
6928;SDS011;3504;52.616;13.238;2023-02-15T15:48:47;32.03;;;19.33;;
6928;SDS011;3504;52.616;13.238;2023-02-15T15:53:49;29.83;;;19.83;;
6928;SDS011;3504;52.616;13.238;2023-02-15T15:58:54;29.23;;;19.00;;
6928;SDS011;3504;52.616;13.238;2023-02-15T16:03:59;30.10;;;19.13;;
6928;SDS011;3504;52.616;13.238;2023-02-15T16:09:12;28.37;;;19.50;;
6928;SDS011;3504;52.616;13.238;2023-02-15T16:14:36;30.97;;;19.53;;
6928;SDS011;3504;52.616;13.238;2023-02-15T16:19:40;34.13;;;19.37;;
6928;SDS011;3504;52.616;13.238;2023-02-15T16:35:36;31.63;;;19.87;;
6928;SDS011;3504;52.616;13.238;2023-02-15T16:40:51;33.87;;;21.20;;
6928;SDS011;3504;52.616;13.238;2023-02-15T16:46:06;37.00;;;22.57;;
6928;SDS011;3504;52.616;13.238;2023-02-15T16:51:18;31.70;;;20.93;;
6928;SDS011;3504;52.616;13.238;2023-02-15T16:56:24;41.17;;;23.23;;
6928;SDS011;3504;52.616;13.238;2023-02-15T17:01:30;39.77;;;23.77;;
6928;SDS011;3504;52.616;13.238;2023-02-15T17:06:32;34.90;;;22.87;;
6928;SDS011;3504;52.616;13.238;2023-02-15T17:11:34;34.43;;;21.40;;
6928;SDS011;3504;52.616;13.238;2023-02-15T17:16:44;36.13;;;22.53;;
6928;SDS011;3504;52.616;13.238;2023-02-15T17:21:51;34.47;;;22.70;;
6928;SDS011;3504;52.616;13.238;2023-02-15T17:26:55;34.33;;;22.67;;
6928;SDS011;3504;52.616;13.238;2023-02-15T17:32:00;40.23;;;21.70;;
6928;SDS011;3504;52.616;13.238;2023-02-15T17:37:02;32.70;;;20.30;;
6928;SDS011;3504;52.616;13.238;2023-02-15T17:42:02;35.77;;;23.53;;
6928;SDS011;3504;52.616;13.238;2023-02-15T17:47:03;34.50;;;23.00;;
6928;SDS011;3504;52.616;13.238;2023-02-15T17:52:03;41.23;;;25.97;;
6928;SDS011;3504;52.616;13.238;2023-02-15T17:57:08;37.83;;;25.43;;
6928;SDS011;3504;52.616;13.238;2023-02-15T18:02:14;40.87;;;25.20;;
6928;SDS011;3504;52.616;13.238;2023-02-15T18:07:33;48.70;;;30.37;;
6928;SDS011;3504;52.616;13.238;2023-02-15T18:12:52;46.30;;;29.97;;
6928;SDS011;3504;52.616;13.238;2023-02-15T18:17:52;43.43;;;28.13;;
6928;SDS011;3504;52.616;13.238;2023-02-15T18:22:53;38.10;;;25.43;;
6928;SDS011;3504;52.616;13.238;2023-02-15T18:27:54;45.97;;;28.90;;
6928;SDS011;3504;52.616;13.238;2023-02-15T18:32:55;43.80;;;28.73;;
6928;SDS011;3504;52.616;13.238;2023-02-15T18:37:57;51.20;;;31.30;;
6928;SDS011;3504;52.616;13.238;2023-02-15T18:42:59;51.73;;;32.27;;
6928;SDS011;3504;52.616;13.238;2023-02-15T18:48:00;49.50;;;31.53;;
6928;SDS011;3504;52.616;13.238;2023-02-15T18:53:01;53.63;;;34.60;;
6928;SDS011;3504;52.616;13.238;2023-02-15T18:58:03;62.23;;;36.87;;
6928;SDS011;3504;52.616;13.238;2023-02-15T19:03:04;64.60;;;38.20;;
6928;SDS011;3504;52.616;13.238;2023-02-15T19:08:04;64.47;;;39.40;;
6928;SDS011;3504;52.616;13.238;2023-02-15T19:13:16;82.83;;;45.97;;
6928;SDS011;3504;52.616;13.238;2023-02-15T19:18:17;87.63;;;48.03;;
6928;SDS011;3504;52.616;13.238;2023-02-15T19:23:20;72.23;;;42.80;;
6928;SDS011;3504;52.616;13.238;2023-02-15T19:28:27;79.33;;;45.57;;
6928;SDS011;3504;52.616;13.238;2023-02-15T19:33:32;67.80;;;41.60;;
6928;SDS011;3504;52.616;13.238;2023-02-15T19:38:33;67.73;;;39.20;;
6928;SDS011;3504;52.616;13.238;2023-02-15T19:43:35;60.90;;;38.60;;
6928;SDS011;3504;52.616;13.238;2023-02-15T19:48:36;66.43;;;39.60;;
6928;SDS011;3504;52.616;13.238;2023-02-15T19:53:36;60.87;;;38.37;;
6928;SDS011;3504;52.616;13.238;2023-02-15T19:58:37;66.00;;;39.33;;
6928;SDS011;3504;52.616;13.238;2023-02-15T20:03:37;65.47;;;38.67;;
6928;SDS011;3504;52.616;13.238;2023-02-15T20:08:37;73.00;;;40.87;;
6928;SDS011;3504;52.616;13.238;2023-02-15T20:13:38;69.57;;;40.17;;
6928;SDS011;3504;52.616;13.238;2023-02-15T20:18:39;60.73;;;36.43;;
6928;SDS011;3504;52.616;13.238;2023-02-15T20:23:43;60.77;;;35.10;;
6928;SDS011;3504;52.616;13.238;2023-02-15T20:28:44;61.80;;;36.27;;
6928;SDS011;3504;52.616;13.238;2023-02-15T20:33:46;54.67;;;33.70;;
6928;SDS011;3504;52.616;13.238;2023-02-15T20:38:47;63.00;;;34.57;;
6928;SDS011;3504;52.616;13.238;2023-02-15T20:43:48;58.40;;;35.40;;
6928;SDS011;3504;52.616;13.238;2023-02-15T20:48:48;64.17;;;37.87;;
6928;SDS011;3504;52.616;13.238;2023-02-15T20:53:49;59.60;;;34.13;;
6928;SDS011;3504;52.616;13.238;2023-02-15T20:58:50;61.40;;;35.70;;
6928;SDS011;3504;52.616;13.238;2023-02-15T21:03:51;56.63;;;34.53;;
6928;SDS011;3504;52.616;13.238;2023-02-15T21:08:52;58.93;;;34.87;;
6928;SDS011;3504;52.616;13.238;2023-02-15T21:13:52;64.20;;;36.90;;
6928;SDS011;3504;52.616;13.238;2023-02-15T21:18:53;56.87;;;34.23;;
6928;SDS011;3504;52.616;13.238;2023-02-15T21:23:53;59.33;;;35.37;;
6928;SDS011;3504;52.616;13.238;2023-02-15T21:28:54;58.77;;;34.60;;
6928;SDS011;3504;52.616;13.238;2023-02-15T21:33:55;60.80;;;35.87;;
6928;SDS011;3504;52.616;13.238;2023-02-15T21:38:56;59.47;;;35.40;;
6928;SDS011;3504;52.616;13.238;2023-02-15T21:43:57;61.50;;;43.47;;
6928;SDS011;3504;52.616;13.238;2023-02-15T21:49:16;56.73;;;34.27;;
6928;SDS011;3504;52.616;13.238;2023-02-15T21:54:17;51.57;;;32.03;;
6928;SDS011;3504;52.616;13.238;2023-02-15T21:59:19;60.07;;;33.77;;
6928;SDS011;3504;52.616;13.238;2023-02-15T22:04:21;61.23;;;36.23;;
6928;SDS011;3504;52.616;13.238;2023-02-15T22:09:24;70.33;;;40.20;;
6928;SDS011;3504;52.616;13.238;2023-02-15T22:19:38;65.73;;;38.87;;
6928;SDS011;3504;52.616;13.238;2023-02-15T22:24:38;66.93;;;38.90;;
6928;SDS011;3504;52.616;13.238;2023-02-15T22:29:40;58.83;;;36.10;;
6928;SDS011;3504;52.616;13.238;2023-02-15T22:34:40;55.73;;;35.00;;
6928;SDS011;3504;52.616;13.238;2023-02-15T22:39:41;58.47;;;35.80;;
6928;SDS011;3504;52.616;13.238;2023-02-15T22:44:41;62.97;;;37.00;;
6928;SDS011;3504;52.616;13.238;2023-02-15T22:49:42;66.60;;;37.73;;
6928;SDS011;3504;52.616;13.238;2023-02-15T22:54:42;57.47;;;32.77;;
6928;SDS011;3504;52.616;13.238;2023-02-15T22:59:43;63.07;;;34.03;;
6928;SDS011;3504;52.616;13.238;2023-02-15T23:04:44;60.23;;;33.27;;
6928;SDS011;3504;52.616;13.238;2023-02-15T23:09:45;52.90;;;32.17;;
6928;SDS011;3504;52.616;13.238;2023-02-15T23:14:45;55.50;;;33.03;;
6928;SDS011;3504;52.616;13.238;2023-02-15T23:19:46;54.87;;;31.87;;
6928;SDS011;3504;52.616;13.238;2023-02-15T23:24:48;57.70;;;32.47;;
6928;SDS011;3504;52.616;13.238;2023-02-15T23:29:51;56.17;;;33.80;;
6928;SDS011;3504;52.616;13.238;2023-02-15T23:34:52;57.07;;;32.53;;
6928;SDS011;3504;52.616;13.238;2023-02-15T23:39:52;58.70;;;33.40;;
6928;SDS011;3504;52.616;13.238;2023-02-15T23:45:17;64.50;;;36.53;;
6928;SDS011;3504;52.616;13.238;2023-02-15T23:50:28;60.80;;;37.13;;
6928;SDS011;3504;52.616;13.238;2023-02-15T23:55:33;66.70;;;38.40;;
